Time;durP1;ratioP1;P1;durP2;ratioP2;P2;SDS_P1;SDS_P2;PMS_P1;PMS_P2;Temp;Humidity;BMP_temperature;BMP_pressure;BME280_temperature;BME280_humidity;BME280_pressure;Samples;Min_cycle;Max_cycle;Signal;HPM_P1;HPM_P2
2022/10/23 00:01:25;;;;;;;0.20;0.10;;;;;;;;;;5045624;28;20663;-84
2022/10/23 00:03:52;;;;;;;0.20;0.13;;;;;;;;;;5037249;28;20064;-83
2022/10/23 00:06:18;;;;;;;0.20;0.10;;;;;;;;;;5050414;28;20048;-84
2022/10/23 00:08:45;;;;;;;0.20;0.10;;;;;;;;;;5033806;28;20079;-83
2022/10/23 00:11:13;;;;;;;0.20;0.10;;;;;;;;;;5030156;28;20093;-84
2022/10/23 00:13:39;;;;;;;0.25;0.13;;;;;;;;;;5034326;28;20028;-83
2022/10/23 00:16:06;;;;;;;0.20;0.20;;;;;;;;;;5037399;28;20079;-83
2022/10/23 00:18:32;;;;;;;0.20;0.10;;;;;;;;;;5052318;28;20406;-84
2022/10/23 00:20:58;;;;;;;0.20;0.17;;;;;;;;;;5049647;28;20131;-84
2022/10/23 00:23:24;;;;;;;0.20;0.10;;;;;;;;;;5017686;28;20049;-83
2022/10/23 00:25:50;;;;;;;0.20;0.10;;;;;;;;;;5036685;28;20041;-84
2022/10/23 00:28:16;;;;;;;0.20;0.08;;;;;;;;;;5046780;28;20117;-84
2022/10/23 00:30:42;;;;;;;0.20;0.08;;;;;;;;;;5034254;28;20147;-83
2022/10/23 00:33:09;;;;;;;0.20;0.10;;;;;;;;;;5016825;28;20074;-84
2022/10/23 00:35:38;;;;;;;0.20;0.10;;;;;;;;;;5050159;28;20043;-83
2022/10/23 00:38:04;;;;;;;0.20;0.10;;;;;;;;;;5054614;28;20040;-83
2022/10/23 00:40:30;;;;;;;0.20;0.10;;;;;;;;;;5050951;28;20041;-84
2022/10/23 00:42:56;;;;;;;0.20;0.20;;;;;;;;;;5049357;28;20040;-83
2022/10/23 00:45:25;;;;;;;0.20;0.10;;;;;;;;;;5016921;28;20155;-84
2022/10/23 00:47:51;;;;;;;0.20;0.10;;;;;;;;;;5049527;28;20579;-84
2022/10/23 00:50:17;;;;;;;0.20;0.10;;;;;;;;;;5035369;28;20127;-84
2022/10/23 00:52:48;;;;;;;0.20;0.10;;;;;;;;;;5033989;28;20789;-83
2022/10/23 00:55:15;;;;;;;0.68;0.52;;;;;;;;;;5052815;28;20094;-84
2022/10/23 00:57:43;;;;;;;0.20;0.10;;;;;;;;;;5032595;28;20040;-84
2022/10/23 01:00:11;;;;;;;0.20;0.10;;;;;;;;;;5035025;28;20141;-84
2022/10/23 01:02:37;;;;;;;0.20;0.10;;;;;;;;;;5047468;28;20064;-83
2022/10/23 01:05:03;;;;;;;0.20;0.10;;;;;;;;;;5050718;28;20067;-83
2022/10/23 01:07:50;;;;;;;0.20;0.10;;;;;;;;;;5036846;28;20097;-84
2022/10/23 01:10:45;;;;;;;0.20;0.10;;;;;;;;;;5033310;28;20121;-84
2022/10/23 01:13:19;;;;;;;0.20;0.10;;;;;;;;;;5049977;28;20041;-84
2022/10/23 01:15:52;;;;;;;0.20;0.10;;;;;;;;;;5047518;28;20037;-83
2022/10/23 01:18:27;;;;;;;0.20;0.10;;;;;;;;;;5038055;28;20111;-84
2022/10/23 01:21:09;;;;;;;0.20;0.20;;;;;;;;;;5038648;28;20048;-84
2022/10/23 01:23:35;;;;;;;0.20;0.10;;;;;;;;;;5053216;28;20044;-84
2022/10/23 01:26:31;;;;;;;0.20;0.10;;;;;;;;;;5048025;28;20045;-83
2022/10/23 01:29:08;;;;;;;0.20;0.10;;;;;;;;;;5049639;28;20069;-84
2022/10/23 01:31:41;;;;;;;0.20;0.10;;;;;;;;;;5051243;28;20048;-84
2022/10/23 01:34:13;;;;;;;0.20;0.20;;;;;;;;;;5033741;28;20450;-84
2022/10/23 01:36:41;;;;;;;0.20;0.10;;;;;;;;;;5030037;28;20074;-83
2022/10/23 01:39:10;;;;;;;0.20;0.10;;;;;;;;;;5037336;28;20536;-84
2022/10/23 01:41:47;;;;;;;0.20;0.10;;;;;;;;;;5050011;28;20130;-83
2022/10/23 01:44:21;;;;;;;0.20;0.10;;;;;;;;;;5035151;28;20531;-84
2022/10/23 01:46:49;;;;;;;0.30;0.10;;;;;;;;;;5029729;28;20037;-84
2022/10/23 01:49:16;;;;;;;0.20;0.10;;;;;;;;;;5032826;28;20126;-84
2022/10/23 01:51:44;;;;;;;0.20;0.10;;;;;;;;;;5036678;28;20052;-84
2022/10/23 01:54:12;;;;;;;1.38;0.20;;;;;;;;;;5037152;28;20075;-85
2022/10/23 01:56:40;;;;;;;0.20;0.10;;;;;;;;;;5048596;28;20132;-86
2022/10/23 01:59:12;;;;;;;0.20;0.10;;;;;;;;;;5038247;28;21503;-85
2022/10/23 02:01:41;;;;;;;0.20;0.10;;;;;;;;;;5035241;28;20033;-85
2022/10/23 02:04:08;;;;;;;0.20;0.10;;;;;;;;;;5030187;28;20044;-85
2022/10/23 02:06:34;;;;;;;0.65;0.57;;;;;;;;;;5051130;28;20110;-84
2022/10/23 02:09:00;;;;;;;0.50;0.15;;;;;;;;;;5012613;28;20052;-85
2022/10/23 02:11:26;;;;;;;0.88;0.40;;;;;;;;;;5034489;28;20141;-85
2022/10/23 02:14:03;;;;;;;0.20;0.10;;;;;;;;;;5031749;28;20123;-84
2022/10/23 02:16:48;;;;;;;0.20;0.10;;;;;;;;;;5030656;28;20570;-86
2022/10/23 02:19:14;;;;;;;0.20;0.20;;;;;;;;;;5046221;28;20466;-84
2022/10/23 02:21:40;;;;;;;0.20;0.10;;;;;;;;;;5030731;28;20045;-85
2022/10/23 02:24:09;;;;;;;0.20;0.10;;;;;;;;;;5031453;28;20051;-85
2022/10/23 02:26:41;;;;;;;0.20;0.10;;;;;;;;;;5051129;28;20036;-86
2022/10/23 02:29:10;;;;;;;0.20;0.10;;;;;;;;;;5034065;28;20040;-85
2022/10/23 02:31:36;;;;;;;0.20;0.10;;;;;;;;;;5039220;28;20079;-84
2022/10/23 02:34:02;;;;;;;0.20;0.10;;;;;;;;;;5038961;28;20044;-84
2022/10/23 02:36:28;;;;;;;0.40;0.30;;;;;;;;;;5023069;28;20029;-84
2022/10/23 02:38:54;;;;;;;0.20;0.10;;;;;;;;;;5053608;28;20075;-85
2022/10/23 02:41:24;;;;;;;0.20;0.10;;;;;;;;;;5020895;28;20155;-85
2022/10/23 02:44:08;;;;;;;0.30;0.28;;;;;;;;;;5038735;28;20066;-85
2022/10/23 02:46:48;;;;;;;0.20;0.10;;;;;;;;;;5053754;28;20041;-84
2022/10/23 02:49:23;;;;;;;0.20;0.10;;;;;;;;;;5038197;28;20147;-84
2022/10/23 02:51:58;;;;;;;0.20;0.10;;;;;;;;;;5027511;28;20495;-85
2022/10/23 02:54:50;;;;;;;0.30;0.20;;;;;;;;;;5038597;28;20102;-85
2022/10/23 02:57:22;;;;;;;0.20;0.10;;;;;;;;;;5071691;28;20041;-86
2022/10/23 03:00:15;;;;;;;0.20;0.10;;;;;;;;;;5036815;28;20040;-86
2022/10/23 03:02:56;;;;;;;0.20;0.10;;;;;;;;;;5051616;28;20083;-85
2022/10/23 03:05:25;;;;;;;0.28;0.20;;;;;;;;;;5054081;28;20089;-85
2022/10/23 03:07:51;;;;;;;0.20;0.10;;;;;;;;;;5037402;28;20126;-84
2022/10/23 03:10:17;;;;;;;0.20;0.10;;;;;;;;;;5054204;28;20041;-84
2022/10/23 03:12:45;;;;;;;0.20;0.10;;;;;;;;;;5022534;28;20032;-85
2022/10/23 03:15:12;;;;;;;0.20;0.10;;;;;;;;;;5040786;28;20037;-86
2022/10/23 03:17:38;;;;;;;0.20;0.10;;;;;;;;;;5064563;28;20044;-85
2022/10/23 03:20:05;;;;;;;0.20;0.10;;;;;;;;;;5042416;28;20033;-86
2022/10/23 03:22:31;;;;;;;0.20;0.10;;;;;;;;;;5040488;28;20201;-86
2022/10/23 03:24:57;;;;;;;0.20;0.10;;;;;;;;;;5057221;28;20426;-84
2022/10/23 03:27:23;;;;;;;0.20;0.10;;;;;;;;;;5021423;28;20052;-85
2022/10/23 03:29:49;;;;;;;0.20;0.05;;;;;;;;;;5033523;28;20044;-84
2022/10/23 03:32:15;;;;;;;0.20;0.00;;;;;;;;;;5023776;28;20040;-85
2022/10/23 03:34:41;;;;;;;0.20;0.10;;;;;;;;;;5024920;28;20127;-85
2022/10/23 03:37:07;;;;;;;0.20;0.10;;;;;;;;;;5037510;28;20036;-84
2022/10/23 03:39:33;;;;;;;0.20;0.13;;;;;;;;;;5034950;28;20549;-85
2022/10/23 03:41:59;;;;;;;0.20;0.10;;;;;;;;;;5017224;28;20128;-85
2022/10/23 03:44:25;;;;;;;0.20;0.10;;;;;;;;;;5037602;28;20048;-85
2022/10/23 03:46:51;;;;;;;0.20;0.10;;;;;;;;;;5036580;28;20495;-85
2022/10/23 03:49:17;;;;;;;0.20;0.10;;;;;;;;;;5021675;28;20084;-86
2022/10/23 03:51:50;;;;;;;0.20;0.10;;;;;;;;;;5051848;28;20045;-85
2022/10/23 03:54:16;;;;;;;0.20;0.10;;;;;;;;;;5039060;28;20036;-85
2022/10/23 03:56:42;;;;;;;0.20;0.10;;;;;;;;;;5036050;28;20658;-85
2022/10/23 03:59:08;;;;;;;0.20;0.10;;;;;;;;;;5053662;28;20156;-85
2022/10/23 04:01:34;;;;;;;0.20;0.10;;;;;;;;;;5030598;28;20043;-85
2022/10/23 04:04:00;;;;;;;0.20;0.00;;;;;;;;;;5040262;28;20044;-84
2022/10/23 04:06:26;;;;;;;0.20;0.10;;;;;;;;;;5036946;28;20075;-85
2022/10/23 04:08:52;;;;;;;0.20;0.10;;;;;;;;;;5033176;28;20043;-85
2022/10/23 04:11:18;;;;;;;0.20;0.10;;;;;;;;;;5020590;28;20087;-84
2022/10/23 04:13:44;;;;;;;0.20;0.10;;;;;;;;;;5029496;28;20041;-85
2022/10/23 04:16:11;;;;;;;0.20;0.10;;;;;;;;;;5052246;28;20040;-84
2022/10/23 04:18:37;;;;;;;0.20;0.10;;;;;;;;;;5036358;28;20037;-85
2022/10/23 04:21:03;;;;;;;0.20;0.10;;;;;;;;;;5035139;28;22163;-85
2022/10/23 04:23:29;;;;;;;0.20;0.10;;;;;;;;;;5017676;28;20047;-84
2022/10/23 04:25:56;;;;;;;0.20;0.10;;;;;;;;;;5035186;28;20055;-85
2022/10/23 04:28:23;;;;;;;0.20;0.10;;;;;;;;;;5035084;28;20119;-85
2022/10/23 04:30:49;;;;;;;0.20;0.08;;;;;;;;;;5051741;28;20139;-85
2022/10/23 04:33:15;;;;;;;0.20;0.10;;;;;;;;;;5015900;28;20197;-85
2022/10/23 04:35:41;;;;;;;0.28;0.20;;;;;;;;;;5049887;28;20045;-85
2022/10/23 04:38:07;;;;;;;0.20;0.10;;;;;;;;;;5018980;28;20033;-85
2022/10/23 04:40:33;;;;;;;0.20;0.10;;;;;;;;;;5038385;28;20055;-85
2022/10/23 04:42:59;;;;;;;0.20;0.10;;;;;;;;;;5014574;28;20165;-85
2022/10/23 04:45:25;;;;;;;0.20;0.10;;;;;;;;;;5050176;28;20052;-84
2022/10/23 04:47:52;;;;;;;0.20;0.10;;;;;;;;;;5050012;28;20036;-85
2022/10/23 04:50:18;;;;;;;0.20;0.10;;;;;;;;;;5036905;28;20041;-84
2022/10/23 04:52:44;;;;;;;0.20;0.10;;;;;;;;;;5032281;28;20033;-85
2022/10/23 04:55:11;;;;;;;0.32;0.32;;;;;;;;;;5032847;28;20185;-85
2022/10/23 04:57:37;;;;;;;0.20;0.10;;;;;;;;;;5034862;28;20028;-85
2022/10/23 05:00:06;;;;;;;0.20;0.10;;;;;;;;;;5018763;28;20047;-84
2022/10/23 05:02:32;;;;;;;0.20;0.10;;;;;;;;;;5033881;28;20029;-84
2022/10/23 05:04:58;;;;;;;0.20;0.20;;;;;;;;;;5034688;28;20051;-83
2022/10/23 05:07:24;;;;;;;0.20;0.10;;;;;;;;;;5039618;28;20044;-84
2022/10/23 05:09:50;;;;;;;0.20;0.10;;;;;;;;;;5036341;28;20044;-84
2022/10/23 05:12:16;;;;;;;0.20;0.10;;;;;;;;;;5036266;28;20048;-85
2022/10/23 05:14:42;;;;;;;0.20;0.10;;;;;;;;;;5032313;28;20036;-84
2022/10/23 05:17:15;;;;;;;0.20;0.10;;;;;;;;;;5048882;28;20036;-85
2022/10/23 05:19:48;;;;;;;0.20;0.10;;;;;;;;;;5035728;28;20115;-85
2022/10/23 05:22:14;;;;;;;0.30;0.20;;;;;;;;;;5038795;28;20040;-85
2022/10/23 05:24:41;;;;;;;0.20;0.10;;;;;;;;;;5038371;28;20036;-86
2022/10/23 05:27:07;;;;;;;0.52;0.20;;;;;;;;;;5019609;28;20036;-85
2022/10/23 05:29:33;;;;;;;0.20;0.00;;;;;;;;;;5036513;28;20051;-85
2022/10/23 05:32:02;;;;;;;0.20;0.10;;;;;;;;;;5032345;28;20040;-85
2022/10/23 05:34:29;;;;;;;0.20;0.10;;;;;;;;;;5032169;28;20040;-85
2022/10/23 05:36:55;;;;;;;0.20;0.00;;;;;;;;;;5035660;28;20087;-85
2022/10/23 05:39:21;;;;;;;0.20;0.20;;;;;;;;;;5023763;28;20040;-85
2022/10/23 05:41:48;;;;;;;0.20;0.10;;;;;;;;;;5020872;28;20044;-85
2022/10/23 05:44:14;;;;;;;0.20;0.20;;;;;;;;;;5033598;28;20139;-85
2022/10/23 05:46:41;;;;;;;0.20;0.20;;;;;;;;;;5029812;28;20115;-84
2022/10/23 05:49:07;;;;;;;0.20;0.10;;;;;;;;;;5048650;28;20049;-84
2022/10/23 05:51:35;;;;;;;0.20;0.10;;;;;;;;;;5037379;28;20770;-85
2022/10/23 05:54:01;;;;;;;0.20;0.13;;;;;;;;;;5038286;28;20550;-84
2022/10/23 05:56:28;;;;;;;0.25;0.10;;;;;;;;;;5015543;28;20572;-85
2022/10/23 05:58:54;;;;;;;0.20;0.10;;;;;;;;;;5035086;28;20048;-85
2022/10/23 06:01:21;;;;;;;0.20;0.10;;;;;;;;;;5017449;28;20533;-85
2022/10/23 06:03:48;;;;;;;0.20;0.10;;;;;;;;;;5052453;28;20506;-85
2022/10/23 06:06:14;;;;;;;0.20;0.10;;;;;;;;;;5019505;28;20040;-85
2022/10/23 06:08:40;;;;;;;0.20;0.05;;;;;;;;;;5031913;28;20041;-85
2022/10/23 06:11:10;;;;;;;0.20;0.10;;;;;;;;;;5054404;28;20113;-85
2022/10/23 06:13:36;;;;;;;0.20;0.10;;;;;;;;;;5031601;28;20040;-85
2022/10/23 06:16:09;;;;;;;0.20;0.10;;;;;;;;;;5032212;28;20040;-84
2022/10/23 06:18:35;;;;;;;0.20;0.10;;;;;;;;;;5042427;28;20043;-85
2022/10/23 06:21:02;;;;;;;0.20;0.10;;;;;;;;;;5037305;28;20052;-85
2022/10/23 06:23:30;;;;;;;0.20;0.10;;;;;;;;;;5024099;28;20036;-85
2022/10/23 06:25:56;;;;;;;0.20;0.10;;;;;;;;;;5049270;28;20125;-85
2022/10/23 06:28:22;;;;;;;0.20;0.10;;;;;;;;;;5018631;28;20045;-85
2022/10/23 06:30:48;;;;;;;0.20;0.10;;;;;;;;;;5030845;28;20036;-85
2022/10/23 06:33:14;;;;;;;0.30;0.28;;;;;;;;;;5031704;28;20098;-83
2022/10/23 06:35:40;;;;;;;0.20;0.10;;;;;;;;;;5031927;28;20159;-86
2022/10/23 06:38:08;;;;;;;0.20;0.10;;;;;;;;;;5032588;28;20047;-84
2022/10/23 06:40:34;;;;;;;0.20;0.10;;;;;;;;;;5031586;28;20059;-85
2022/10/23 06:43:00;;;;;;;0.20;0.10;;;;;;;;;;5016760;28;20131;-85
2022/10/23 06:45:26;;;;;;;0.20;0.10;;;;;;;;;;5033917;28;20044;-85
2022/10/23 06:47:52;;;;;;;0.20;0.10;;;;;;;;;;5030993;28;20072;-86
2022/10/23 06:50:18;;;;;;;0.20;0.10;;;;;;;;;;5031470;28;20069;-85
2022/10/23 06:52:44;;;;;;;0.20;0.10;;;;;;;;;;5021970;28;20106;-85
2022/10/23 06:55:10;;;;;;;0.20;0.10;;;;;;;;;;5018436;28;20118;-85
2022/10/23 06:57:36;;;;;;;0.20;0.10;;;;;;;;;;5025299;28;20040;-84
2022/10/23 07:00:03;;;;;;;1.27;0.20;;;;;;;;;;5019161;28;20119;-84
2022/10/23 07:02:29;;;;;;;0.20;0.10;;;;;;;;;;5030854;28;20036;-84
2022/10/23 07:04:55;;;;;;;0.20;0.10;;;;;;;;;;5050901;28;20050;-84
2022/10/23 07:07:21;;;;;;;0.20;0.10;;;;;;;;;;5029016;28;20037;-85
2022/10/23 07:09:48;;;;;;;0.20;0.10;;;;;;;;;;5031445;28;20093;-85
2022/10/23 07:12:14;;;;;;;1.20;0.47;;;;;;;;;;5021032;28;20064;-85
2022/10/23 07:14:40;;;;;;;0.20;0.10;;;;;;;;;;5017884;28;20037;-85
2022/10/23 07:17:06;;;;;;;0.20;0.10;;;;;;;;;;5032711;28;20032;-86
2022/10/23 07:19:32;;;;;;;0.20;0.10;;;;;;;;;;5022538;28;20136;-85
2022/10/23 07:21:58;;;;;;;0.20;0.10;;;;;;;;;;5020442;28;20045;-85
2022/10/23 07:24:24;;;;;;;0.20;0.10;;;;;;;;;;5049803;28;20052;-85
2022/10/23 07:26:50;;;;;;;0.20;0.10;;;;;;;;;;5021173;28;20040;-86
2022/10/23 07:29:16;;;;;;;0.20;0.10;;;;;;;;;;5034992;28;20040;-85
2022/10/23 07:31:42;;;;;;;0.40;0.40;;;;;;;;;;5034638;28;21654;-85
2022/10/23 07:34:09;;;;;;;0.20;0.10;;;;;;;;;;5036282;28;20522;-85
2022/10/23 07:36:35;;;;;;;0.20;0.08;;;;;;;;;;5037224;28;20041;-84
2022/10/23 07:39:01;;;;;;;0.20;0.10;;;;;;;;;;5021938;28;20118;-85
2022/10/23 07:41:27;;;;;;;0.20;0.10;;;;;;;;;;5015252;28;20068;-86
2022/10/23 07:43:53;;;;;;;0.57;0.30;;;;;;;;;;5024339;28;20067;-85
2022/10/23 07:46:19;;;;;;;0.20;0.10;;;;;;;;;;5035595;28;20166;-84
2022/10/23 07:48:45;;;;;;;0.20;0.10;;;;;;;;;;5020237;28;20032;-86
2022/10/23 07:51:13;;;;;;;0.20;0.10;;;;;;;;;;5019959;28;20163;-84
2022/10/23 07:53:39;;;;;;;0.20;0.10;;;;;;;;;;5037589;28;20442;-85
2022/10/23 07:56:20;;;;;;;0.20;0.08;;;;;;;;;;5021361;28;20095;-86
2022/10/23 07:58:46;;;;;;;0.20;0.10;;;;;;;;;;5036860;28;20036;-84
2022/10/23 08:01:20;;;;;;;0.20;0.10;;;;;;;;;;5030143;28;20134;-85
2022/10/23 08:03:46;;;;;;;0.20;0.10;;;;;;;;;;5035618;28;20037;-87
2022/10/23 08:06:12;;;;;;;0.30;0.20;;;;;;;;;;5023383;28;20123;-85
2022/10/23 08:08:38;;;;;;;0.20;0.10;;;;;;;;;;5036236;28;20687;-84
2022/10/23 08:11:04;;;;;;;0.20;0.10;;;;;;;;;;5030100;28;20175;-85
2022/10/23 08:13:30;;;;;;;0.20;0.10;;;;;;;;;;5028335;28;20032;-84
2022/10/23 08:15:57;;;;;;;0.20;0.00;;;;;;;;;;5017640;28;20064;-85
2022/10/23 08:18:23;;;;;;;0.20;0.10;;;;;;;;;;5043603;28;20554;-84
2022/10/23 08:20:51;;;;;;;0.20;0.10;;;;;;;;;;5044878;28;20048;-84
2022/10/23 08:23:18;;;;;;;0.20;0.10;;;;;;;;;;5032558;28;20048;-84
2022/10/23 08:25:44;;;;;;;0.20;0.10;;;;;;;;;;5042342;28;20047;-84
2022/10/23 08:28:11;;;;;;;0.20;0.10;;;;;;;;;;5042514;28;20049;-84
2022/10/23 08:30:37;;;;;;;0.20;0.10;;;;;;;;;;5056725;28;20044;-83
2022/10/23 08:33:04;;;;;;;0.20;0.10;;;;;;;;;;5039583;28;20040;-85
2022/10/23 08:35:30;;;;;;;0.20;0.10;;;;;;;;;;5013128;28;20558;-84
2022/10/23 08:37:56;;;;;;;0.20;0.10;;;;;;;;;;5032346;28;20032;-84
2022/10/23 08:40:23;;;;;;;0.20;0.10;;;;;;;;;;5051673;28;20051;-85
2022/10/23 08:42:55;;;;;;;0.20;0.10;;;;;;;;;;5036017;28;20068;-84
2022/10/23 08:45:30;;;;;;;0.20;0.10;;;;;;;;;;5051211;28;20458;-84
2022/10/23 08:47:59;;;;;;;0.20;0.10;;;;;;;;;;5035497;28;20036;-84
2022/10/23 08:50:29;;;;;;;0.20;0.10;;;;;;;;;;5032683;28;20520;-84
2022/10/23 08:53:01;;;;;;;0.20;0.10;;;;;;;;;;5034803;28;20090;-83
2022/10/23 08:55:30;;;;;;;0.20;0.10;;;;;;;;;;5056152;28;20052;-85
2022/10/23 08:58:15;;;;;;;0.20;0.10;;;;;;;;;;5037684;28;20159;-84
2022/10/23 09:00:41;;;;;;;0.20;0.10;;;;;;;;;;5040735;28;20102;-84
2022/10/23 09:03:09;;;;;;;0.20;0.10;;;;;;;;;;5035989;28;20113;-83
2022/10/23 09:05:45;;;;;;;0.20;0.10;;;;;;;;;;5039471;28;20044;-84
2022/10/23 09:08:23;;;;;;;0.20;0.10;;;;;;;;;;5030500;28;20136;-84
2022/10/23 09:11:03;;;;;;;0.47;0.10;;;;;;;;;;5039369;28;20043;-85
2022/10/23 09:13:38;;;;;;;0.20;0.10;;;;;;;;;;5037066;28;20402;-86
2022/10/23 09:16:23;;;;;;;0.20;0.10;;;;;;;;;;5043744;28;20044;-84
2022/10/23 09:18:50;;;;;;;0.20;0.10;;;;;;;;;;5047234;28;20109;-84
2022/10/23 09:21:16;;;;;;;0.20;0.10;;;;;;;;;;5037004;28;20055;-84
2022/10/23 09:23:42;;;;;;;0.20;0.10;;;;;;;;;;5018809;28;20044;-84
2022/10/23 09:26:15;;;;;;;0.20;0.10;;;;;;;;;;5064376;28;20135;-84
2022/10/23 09:28:54;;;;;;;0.20;0.10;;;;;;;;;;5043652;28;20043;-84
2022/10/23 09:31:20;;;;;;;0.20;0.10;;;;;;;;;;5044810;28;20052;-84
2022/10/23 09:33:57;;;;;;;0.20;0.10;;;;;;;;;;5033399;28;20487;-85
2022/10/23 09:36:24;;;;;;;0.50;0.35;;;;;;;;;;5024022;28;20048;-85
2022/10/23 09:38:52;;;;;;;0.20;0.10;;;;;;;;;;5044980;28;20048;-85
2022/10/23 09:41:21;;;;;;;0.20;0.10;;;;;;;;;;5050469;28;20059;-85
2022/10/23 09:43:58;;;;;;;0.20;0.10;;;;;;;;;;5020561;28;20040;-87
2022/10/23 09:46:24;;;;;;;0.20;0.10;;;;;;;;;;5026501;28;20522;-84
2022/10/23 09:48:57;;;;;;;0.20;0.10;;;;;;;;;;5030483;28;20127;-85
2022/10/23 09:51:23;;;;;;;0.20;0.10;;;;;;;;;;5046950;28;20216;-83
2022/10/23 09:53:54;;;;;;;0.20;0.10;;;;;;;;;;5016378;28;20044;-85
2022/10/23 09:56:34;;;;;;;0.20;0.10;;;;;;;;;;5032692;28;20045;-84
2022/10/23 09:59:01;;;;;;;0.20;0.10;;;;;;;;;;5048744;28;20080;-84
2022/10/23 10:01:29;;;;;;;0.20;0.10;;;;;;;;;;5036057;28;20044;-85
2022/10/23 10:03:56;;;;;;;0.20;0.10;;;;;;;;;;5044204;28;20044;-85
2022/10/23 10:06:30;;;;;;;0.20;0.10;;;;;;;;;;5036008;28;20431;-85
2022/10/23 10:08:57;;;;;;;0.20;0.10;;;;;;;;;;5052408;28;20045;-83
2022/10/23 10:11:23;;;;;;;0.20;0.10;;;;;;;;;;5054100;28;20621;-85
2022/10/23 10:13:55;;;;;;;0.20;0.10;;;;;;;;;;5033873;28;20032;-85
2022/10/23 10:16:31;;;;;;;0.20;0.10;;;;;;;;;;5047306;28;20074;-87
2022/10/23 10:19:26;;;;;;;0.20;0.10;;;;;;;;;;5050071;28;20095;-84
2022/10/23 10:21:56;;;;;;;0.20;0.10;;;;;;;;;;5028730;28;20040;-87
2022/10/23 10:24:46;;;;;;;0.20;0.10;;;;;;;;;;5035155;28;20917;-85
2022/10/23 10:27:18;;;;;;;0.20;0.10;;;;;;;;;;5052434;28;20041;-87
2022/10/23 10:29:50;;;;;;;0.20;0.10;;;;;;;;;;5051921;28;20056;-87
2022/10/23 10:32:16;;;;;;;0.20;0.10;;;;;;;;;;5044306;28;20494;-88
2022/10/23 10:34:51;;;;;;;0.20;0.10;;;;;;;;;;5054801;28;20024;-85
2022/10/23 10:37:36;;;;;;;0.20;0.10;;;;;;;;;;5037037;28;20496;-87
2022/10/23 10:40:08;;;;;;;0.20;0.10;;;;;;;;;;5032173;28;20067;-85
2022/10/23 10:42:41;;;;;;;0.20;0.10;;;;;;;;;;5050367;28;20044;-85
2022/10/23 10:45:07;;;;;;;0.20;0.10;;;;;;;;;;5032335;28;20704;-86
2022/10/23 10:47:36;;;;;;;0.20;0.10;;;;;;;;;;5036156;28;20044;-87
2022/10/23 10:50:19;;;;;;;0.20;0.10;;;;;;;;;;5037219;28;20098;-85
2022/10/23 10:52:58;;;;;;;0.20;0.10;;;;;;;;;;5050072;28;20041;-87
2022/10/23 10:55:28;;;;;;;0.20;0.10;;;;;;;;;;5039830;28;20043;-86
2022/10/23 10:58:00;;;;;;;0.20;0.10;;;;;;;;;;5037275;28;20090;-85
2022/10/23 11:00:28;;;;;;;0.20;0.10;;;;;;;;;;5050277;28;20040;-86
2022/10/23 11:03:01;;;;;;;0.20;0.10;;;;;;;;;;5055872;28;20052;-85
2022/10/23 11:05:32;;;;;;;0.20;0.10;;;;;;;;;;5034433;28;20048;-88
2022/10/23 11:08:01;;;;;;;0.20;0.10;;;;;;;;;;5053540;28;20044;-88
2022/10/23 11:10:28;;;;;;;0.20;0.10;;;;;;;;;;5038252;28;21025;-87
2022/10/23 11:12:54;;;;;;;0.20;0.10;;;;;;;;;;5053029;28;20052;-86
2022/10/23 11:15:50;;;;;;;0.20;0.10;;;;;;;;;;5024348;28;20075;-86
2022/10/23 11:18:21;;;;;;;0.20;0.10;;;;;;;;;;5030226;28;20044;-88
2022/10/23 11:20:47;;;;;;;0.20;0.10;;;;;;;;;;5036832;28;20076;-87
2022/10/23 11:23:20;;;;;;;0.20;0.05;;;;;;;;;;5039337;28;20029;-88
2022/10/23 11:26:04;;;;;;;0.20;0.10;;;;;;;;;;5044107;28;20090;-88
2022/10/23 11:28:42;;;;;;;0.20;0.10;;;;;;;;;;5042153;28;20033;-87
2022/10/23 11:31:18;;;;;;;0.20;0.00;;;;;;;;;;5039620;28;20076;-88
2022/10/23 11:34:20;;;;;;;0.20;0.10;;;;;;;;;;5038702;28;20044;-88
2022/10/23 11:36:53;;;;;;;0.20;0.10;;;;;;;;;;4970898;28;20451;-89
2022/10/23 11:39:22;;;;;;;0.20;0.10;;;;;;;;;;5035116;28;20053;-90
2022/10/23 11:42:11;;;;;;;0.20;0.10;;;;;;;;;;5043713;28;20645;-88
2022/10/23 11:44:40;;;;;;;0.20;0.10;;;;;;;;;;5039231;28;20066;-86
2022/10/23 11:47:26;;;;;;;0.20;0.10;;;;;;;;;;5045312;28;20055;-89
2022/10/23 11:50:08;;;;;;;0.20;0.10;;;;;;;;;;5035542;28;20052;-87
2022/10/23 11:52:52;;;;;;;0.20;0.10;;;;;;;;;;5045696;28;20041;-88
2022/10/23 11:55:20;;;;;;;0.20;0.10;;;;;;;;;;5047584;28;20032;-88
2022/10/23 11:58:06;;;;;;;0.20;0.10;;;;;;;;;;5037519;28;20049;-88
2022/10/23 12:00:34;;;;;;;0.20;0.10;;;;;;;;;;5064537;28;20123;-88
2022/10/23 12:03:01;;;;;;;0.20;0.10;;;;;;;;;;5049129;28;20426;-86
2022/10/23 12:05:27;;;;;;;0.28;0.17;;;;;;;;;;5044690;28;20051;-87
2022/10/23 12:07:57;;;;;;;0.20;0.10;;;;;;;;;;5043195;28;20033;-88
2022/10/23 12:10:29;;;;;;;0.20;0.10;;;;;;;;;;5042273;28;20052;-88
2022/10/23 12:12:59;;;;;;;0.20;0.10;;;;;;;;;;5046431;28;20040;-87
2022/10/23 12:15:26;;;;;;;0.20;0.10;;;;;;;;;;5048116;28;20048;-88
2022/10/23 12:17:53;;;;;;;0.20;0.10;;;;;;;;;;5031353;28;20531;-87
2022/10/23 12:20:27;;;;;;;0.20;0.10;;;;;;;;;;5039882;28;20711;-86
2022/10/23 12:22:56;;;;;;;0.20;0.10;;;;;;;;;;5043973;28;20044;-87
2022/10/23 12:25:27;;;;;;;0.20;0.10;;;;;;;;;;5045486;28;20048;-88
2022/10/23 12:28:04;;;;;;;0.20;0.10;;;;;;;;;;5042491;28;20040;-87
2022/10/23 12:30:52;;;;;;;0.20;0.10;;;;;;;;;;5048824;28;20049;-88
2022/10/23 12:33:18;;;;;;;0.20;0.10;;;;;;;;;;5045831;28;20037;-89
2022/10/23 12:35:51;;;;;;;0.20;0.10;;;;;;;;;;5047504;28;20112;-87
2022/10/23 12:38:17;;;;;;;0.20;0.10;;;;;;;;;;5045493;28;20068;-88
2022/10/23 12:40:50;;;;;;;0.20;0.10;;;;;;;;;;5063243;28;20055;-89
2022/10/23 12:43:30;;;;;;;0.20;0.10;;;;;;;;;;5060533;28;20037;-86
2022/10/23 12:46:00;;;;;;;0.20;0.10;;;;;;;;;;5063431;28;20090;-89
2022/10/23 12:48:26;;;;;;;0.20;0.10;;;;;;;;;;5062644;28;20082;-87
2022/10/23 12:50:54;;;;;;;0.20;0.10;;;;;;;;;;5026932;28;20049;-87
2022/10/23 12:53:21;;;;;;;0.20;0.10;;;;;;;;;;5064555;28;20036;-89
2022/10/23 12:55:50;;;;;;;0.20;0.10;;;;;;;;;;5062455;28;20033;-89
2022/10/23 12:58:21;;;;;;;0.20;0.10;;;;;;;;;;5043919;28;20425;-90
2022/10/23 13:00:51;;;;;;;0.20;0.10;;;;;;;;;;5046815;28;20119;-87
2022/10/23 13:03:19;;;;;;;0.20;0.10;;;;;;;;;;5047045;28;20040;-90
2022/10/23 13:05:45;;;;;;;0.20;0.10;;;;;;;;;;5038561;28;20418;-91
2022/10/23 13:08:11;;;;;;;0.20;0.10;;;;;;;;;;5045686;28;20090;-87
2022/10/23 13:10:37;;;;;;;0.20;0.10;;;;;;;;;;5063884;28;20036;-87
2022/10/23 13:13:05;;;;;;;0.20;0.10;;;;;;;;;;5032250;28;20045;-88
2022/10/23 13:15:39;;;;;;;0.20;0.10;;;;;;;;;;5042357;28;20110;-88
2022/10/23 13:18:08;;;;;;;0.20;0.10;;;;;;;;;;5041348;28;20686;-86
2022/10/23 13:20:36;;;;;;;0.20;0.10;;;;;;;;;;5043934;28;20044;-87
2022/10/23 13:23:02;;;;;;;0.20;0.10;;;;;;;;;;5039536;28;20041;-87
2022/10/23 13:25:32;;;;;;;0.20;0.10;;;;;;;;;;5060637;28;20541;-87
2022/10/23 13:28:07;;;;;;;0.20;0.10;;;;;;;;;;5038489;28;20041;-91
2022/10/23 13:30:36;;;;;;;0.20;0.10;;;;;;;;;;5044281;28;20075;-88
2022/10/23 13:33:13;;;;;;;0.20;0.10;;;;;;;;;;5040889;28;20041;-88
2022/10/23 13:35:39;;;;;;;0.20;0.10;;;;;;;;;;5051781;28;20085;-88
2022/10/23 13:38:09;;;;;;;0.20;0.10;;;;;;;;;;5042003;28;20063;-88
2022/10/23 13:40:38;;;;;;;0.20;0.10;;;;;;;;;;5025160;28;20040;-90
2022/10/23 13:43:13;;;;;;;0.20;0.10;;;;;;;;;;5032329;28;20059;-87
2022/10/23 13:45:40;;;;;;;0.20;0.10;;;;;;;;;;5045078;28;20044;-88
2022/10/23 13:48:14;;;;;;;0.20;0.10;;;;;;;;;;5042224;28;20048;-89
2022/10/23 13:50:40;;;;;;;0.20;0.10;;;;;;;;;;5034998;28;20250;-88
2022/10/23 13:53:08;;;;;;;0.20;0.10;;;;;;;;;;5026012;28;20123;-91
2022/10/23 13:55:39;;;;;;;0.20;0.10;;;;;;;;;;5046867;28;20056;-90
2022/10/23 13:58:17;;;;;;;0.20;0.10;;;;;;;;;;5061496;28;20158;-88
2022/10/23 14:00:44;;;;;;;0.20;0.10;;;;;;;;;;5025881;28;20044;-88
2022/10/23 14:03:10;;;;;;;0.20;0.10;;;;;;;;;;5026412;28;20415;-87
2022/10/23 14:05:39;;;;;;;0.20;0.10;;;;;;;;;;5023126;28;20048;-88
2022/10/23 14:08:05;;;;;;;0.20;0.10;;;;;;;;;;5018336;28;20037;-90
2022/10/23 14:10:32;;;;;;;0.20;0.10;;;;;;;;;;5041391;28;20041;-88
2022/10/23 14:12:58;;;;;;;0.20;0.10;;;;;;;;;;5032582;28;20129;-86
2022/10/23 14:15:24;;;;;;;0.20;0.10;;;;;;;;;;5043951;28;20160;-87
2022/10/23 14:17:50;;;;;;;0.20;0.10;;;;;;;;;;5025909;28;20441;-87
2022/10/23 14:20:17;;;;;;;0.20;0.10;;;;;;;;;;5028845;28;20033;-87
2022/10/23 14:22:43;;;;;;;0.20;0.10;;;;;;;;;;5055766;28;20039;-87
2022/10/23 14:25:09;;;;;;;0.20;0.10;;;;;;;;;;5027492;28;20048;-87
2022/10/23 14:27:35;;;;;;;0.20;0.10;;;;;;;;;;5042372;28;20042;-88
2022/10/23 14:30:01;;;;;;;0.20;0.10;;;;;;;;;;5041788;28;20086;-87
2022/10/23 14:32:27;;;;;;;0.20;0.10;;;;;;;;;;5029454;28;20036;-88
2022/10/23 14:34:54;;;;;;;0.20;0.10;;;;;;;;;;5040546;28;20516;-86
2022/10/23 14:37:20;;;;;;;0.20;0.10;;;;;;;;;;5042443;28;20478;-89
2022/10/23 14:39:46;;;;;;;0.20;0.10;;;;;;;;;;5060860;28;20167;-87
2022/10/23 14:42:13;;;;;;;0.20;0.10;;;;;;;;;;5062856;28;20044;-87
2022/10/23 14:44:39;;;;;;;0.20;0.10;;;;;;;;;;5062562;28;20040;-87
2022/10/23 14:47:05;;;;;;;0.20;0.10;;;;;;;;;;5065627;28;20116;-86
2022/10/23 14:49:34;;;;;;;0.20;0.10;;;;;;;;;;5044669;28;20470;-89
2022/10/23 14:52:00;;;;;;;0.20;0.10;;;;;;;;;;5040647;28;20045;-87
2022/10/23 14:54:28;;;;;;;0.20;0.15;;;;;;;;;;5043781;28;20037;-88
2022/10/23 14:56:54;;;;;;;0.20;0.10;;;;;;;;;;5031215;28;20044;-87